sensor_id;sensor_type;location;lat;lon;timestamp;P1;durP1;ratioP1;P2;durP2;ratioP2
23728;SDS011;12045;60.214;24.724;2022-08-14T00:02:23;12.65;;;9.70;;
23728;SDS011;12045;60.214;24.724;2022-08-14T00:04:53;10.63;;;8.57;;
23728;SDS011;12045;60.214;24.724;2022-08-14T00:07:21;10.85;;;9.27;;
23728;SDS011;12045;60.214;24.724;2022-08-14T00:09:49;10.10;;;8.82;;
23728;SDS011;12045;60.214;24.724;2022-08-14T00:12:37;11.50;;;8.60;;
23728;SDS011;12045;60.214;24.724;2022-08-14T00:15:12;9.55;;;8.55;;
23728;SDS011;12045;60.214;24.724;2022-08-14T00:17:44;10.27;;;8.82;;
23728;SDS011;12045;60.214;24.724;2022-08-14T00:20:14;10.98;;;8.68;;
23728;SDS011;12045;60.214;24.724;2022-08-14T00:22:50;10.95;;;9.38;;
23728;SDS011;12045;60.214;24.724;2022-08-14T00:25:24;11.55;;;9.32;;
23728;SDS011;12045;60.214;24.724;2022-08-14T00:28:10;9.88;;;8.23;;
23728;SDS011;12045;60.214;24.724;2022-08-14T00:30:44;10.70;;;9.50;;
23728;SDS011;12045;60.214;24.724;2022-08-14T00:33:13;11.40;;;9.63;;
23728;SDS011;12045;60.214;24.724;2022-08-14T00:35:43;12.07;;;9.00;;
23728;SDS011;12045;60.214;24.724;2022-08-14T00:38:31;9.15;;;8.10;;
23728;SDS011;12045;60.214;24.724;2022-08-14T00:41:01;9.23;;;8.23;;
23728;SDS011;12045;60.214;24.724;2022-08-14T00:43:36;9.95;;;8.73;;
23728;SDS011;12045;60.214;24.724;2022-08-14T00:46:09;10.27;;;8.38;;
23728;SDS011;12045;60.214;24.724;2022-08-14T00:48:57;11.68;;;9.23;;
23728;SDS011;12045;60.214;24.724;2022-08-14T00:51:24;10.07;;;7.90;;
23728;SDS011;12045;60.214;24.724;2022-08-14T00:54:06;11.90;;;9.20;;
23728;SDS011;12045;60.214;24.724;2022-08-14T00:56:50;8.95;;;8.05;;
23728;SDS011;12045;60.214;24.724;2022-08-14T00:59:25;10.30;;;8.65;;
23728;SDS011;12045;60.214;24.724;2022-08-14T01:01:55;11.55;;;8.48;;
23728;SDS011;12045;60.214;24.724;2022-08-14T01:04:32;12.93;;;8.02;;
23728;SDS011;12045;60.214;24.724;2022-08-14T01:07:20;9.35;;;8.38;;
23728;SDS011;12045;60.214;24.724;2022-08-14T01:09:56;9.95;;;7.72;;
23728;SDS011;12045;60.214;24.724;2022-08-14T01:12:27;11.13;;;8.48;;
23728;SDS011;12045;60.214;24.724;2022-08-14T01:14:56;9.85;;;8.10;;
23728;SDS011;12045;60.214;24.724;2022-08-14T01:17:25;10.52;;;8.50;;
23728;SDS011;12045;60.214;24.724;2022-08-14T01:20:16;10.95;;;8.80;;
23728;SDS011;12045;60.214;24.724;2022-08-14T01:23:10;11.13;;;9.00;;
23728;SDS011;12045;60.214;24.724;2022-08-14T01:25:48;11.00;;;9.20;;
23728;SDS011;12045;60.214;24.724;2022-08-14T01:28:20;11.25;;;8.77;;
23728;SDS011;12045;60.214;24.724;2022-08-14T01:31:09;9.23;;;8.32;;
23728;SDS011;12045;60.214;24.724;2022-08-14T01:33:43;11.43;;;9.57;;
23728;SDS011;12045;60.214;24.724;2022-08-14T01:36:33;11.35;;;9.25;;
23728;SDS011;12045;60.214;24.724;2022-08-14T01:39:09;9.98;;;8.95;;
23728;SDS011;12045;60.214;24.724;2022-08-14T01:41:40;12.20;;;8.85;;
23728;SDS011;12045;60.214;24.724;2022-08-14T01:44:11;11.88;;;9.50;;
23728;SDS011;12045;60.214;24.724;2022-08-14T01:47:01;11.15;;;9.02;;
23728;SDS011;12045;60.214;24.724;2022-08-14T01:49:37;9.75;;;8.73;;
23728;SDS011;12045;60.214;24.724;2022-08-14T01:52:25;11.30;;;9.65;;
23728;SDS011;12045;60.214;24.724;2022-08-14T01:55:16;12.15;;;8.90;;
23728;SDS011;12045;60.214;24.724;2022-08-14T01:57:44;10.93;;;8.57;;
23728;SDS011;12045;60.214;24.724;2022-08-14T02:00:32;10.98;;;9.30;;
23728;SDS011;12045;60.214;24.724;2022-08-14T02:03:04;11.50;;;8.90;;
23728;SDS011;12045;60.214;24.724;2022-08-14T02:05:33;11.93;;;9.30;;
23728;SDS011;12045;60.214;24.724;2022-08-14T02:08:05;13.95;;;8.98;;
23728;SDS011;12045;60.214;24.724;2022-08-14T02:10:34;12.93;;;8.75;;
23728;SDS011;12045;60.214;24.724;2022-08-14T02:13:12;12.32;;;8.90;;
23728;SDS011;12045;60.214;24.724;2022-08-14T02:15:42;11.57;;;9.18;;
23728;SDS011;12045;60.214;24.724;2022-08-14T02:18:14;12.63;;;9.68;;
23728;SDS011;12045;60.214;24.724;2022-08-14T02:20:44;13.90;;;9.57;;
23728;SDS011;12045;60.214;24.724;2022-08-14T02:23:16;14.68;;;10.88;;
23728;SDS011;12045;60.214;24.724;2022-08-14T02:25:58;11.55;;;10.13;;
23728;SDS011;12045;60.214;24.724;2022-08-14T02:28:48;10.82;;;9.13;;
23728;SDS011;12045;60.214;24.724;2022-08-14T02:31:24;11.05;;;9.00;;
23728;SDS011;12045;60.214;24.724;2022-08-14T02:34:17;11.32;;;8.20;;
23728;SDS011;12045;60.214;24.724;2022-08-14T02:37:03;10.82;;;8.25;;
23728;SDS011;12045;60.214;24.724;2022-08-14T02:39:37;10.60;;;7.85;;
23728;SDS011;12045;60.214;24.724;2022-08-14T02:42:08;11.60;;;9.00;;
23728;SDS011;12045;60.214;24.724;2022-08-14T02:44:42;9.60;;;8.18;;
23728;SDS011;12045;60.214;24.724;2022-08-14T02:47:15;11.45;;;8.20;;
23728;SDS011;12045;60.214;24.724;2022-08-14T02:49:46;12.55;;;8.90;;
23728;SDS011;12045;60.214;24.724;2022-08-14T02:52:22;9.18;;;8.20;;
23728;SDS011;12045;60.214;24.724;2022-08-14T02:55:11;9.10;;;7.78;;
23728;SDS011;12045;60.214;24.724;2022-08-14T02:57:47;9.77;;;8.00;;
23728;SDS011;12045;60.214;24.724;2022-08-14T03:00:30;11.45;;;9.13;;
23728;SDS011;12045;60.214;24.724;2022-08-14T03:03:06;10.85;;;8.95;;
23728;SDS011;12045;60.214;24.724;2022-08-14T03:05:34;16.98;;;13.00;;
23728;SDS011;12045;60.214;24.724;2022-08-14T03:08:09;17.40;;;11.73;;
23728;SDS011;12045;60.214;24.724;2022-08-14T03:10:43;12.57;;;10.43;;
23728;SDS011;12045;60.214;24.724;2022-08-14T03:13:15;11.45;;;9.48;;
23728;SDS011;12045;60.214;24.724;2022-08-14T03:15:46;13.40;;;9.32;;
23728;SDS011;12045;60.214;24.724;2022-08-14T03:18:22;13.75;;;10.38;;
23728;SDS011;12045;60.214;24.724;2022-08-14T03:21:04;17.95;;;13.30;;
23728;SDS011;12045;60.214;24.724;2022-08-14T03:23:34;18.25;;;14.50;;
23728;SDS011;12045;60.214;24.724;2022-08-14T03:26:08;12.85;;;11.13;;
23728;SDS011;12045;60.214;24.724;2022-08-14T03:28:48;15.63;;;11.40;;
23728;SDS011;12045;60.214;24.724;2022-08-14T03:31:18;15.02;;;12.27;;
23728;SDS011;12045;60.214;24.724;2022-08-14T03:33:51;14.18;;;11.45;;
23728;SDS011;12045;60.214;24.724;2022-08-14T03:36:20;15.05;;;12.00;;
23728;SDS011;12045;60.214;24.724;2022-08-14T03:39:08;15.18;;;12.32;;
23728;SDS011;12045;60.214;24.724;2022-08-14T03:41:49;14.88;;;11.40;;
23728;SDS011;12045;60.214;24.724;2022-08-14T03:44:19;17.50;;;12.65;;
23728;SDS011;12045;60.214;24.724;2022-08-14T03:47:07;16.60;;;13.10;;
23728;SDS011;12045;60.214;24.724;2022-08-14T03:49:37;19.00;;;13.13;;
23728;SDS011;12045;60.214;24.724;2022-08-14T03:52:08;18.52;;;13.85;;
23728;SDS011;12045;60.214;24.724;2022-08-14T03:54:59;19.42;;;14.20;;
23728;SDS011;12045;60.214;24.724;2022-08-14T03:57:29;17.20;;;13.80;;
23728;SDS011;12045;60.214;24.724;2022-08-14T03:59:58;18.48;;;14.63;;
23728;SDS011;12045;60.214;24.724;2022-08-14T04:02:29;18.58;;;14.18;;
23728;SDS011;12045;60.214;24.724;2022-08-14T04:05:17;16.33;;;13.35;;
23728;SDS011;12045;60.214;24.724;2022-08-14T04:07:44;18.83;;;13.10;;
23728;SDS011;12045;60.214;24.724;2022-08-14T04:10:31;16.30;;;14.13;;
23728;SDS011;12045;60.214;24.724;2022-08-14T04:12:59;17.65;;;13.70;;
23728;SDS011;12045;60.214;24.724;2022-08-14T04:15:29;17.38;;;13.13;;
23728;SDS011;12045;60.214;24.724;2022-08-14T04:18:18;17.63;;;13.70;;
23728;SDS011;12045;60.214;24.724;2022-08-14T04:20:46;16.73;;;13.35;;
23728;SDS011;12045;60.214;24.724;2022-08-14T04:23:21;16.38;;;13.88;;
23728;SDS011;12045;60.214;24.724;2022-08-14T04:26:02;15.90;;;12.82;;
23728;SDS011;12045;60.214;24.724;2022-08-14T04:28:34;17.48;;;13.88;;
23728;SDS011;12045;60.214;24.724;2022-08-14T04:31:24;17.70;;;13.88;;
23728;SDS011;12045;60.214;24.724;2022-08-14T04:34:12;16.67;;;12.80;;
23728;SDS011;12045;60.214;24.724;2022-08-14T04:36:43;18.38;;;13.25;;
23728;SDS011;12045;60.214;24.724;2022-08-14T04:39:47;18.65;;;13.63;;
23728;SDS011;12045;60.214;24.724;2022-08-14T04:42:34;18.35;;;13.38;;
23728;SDS011;12045;60.214;24.724;2022-08-14T04:45:22;15.93;;;13.52;;
23728;SDS011;12045;60.214;24.724;2022-08-14T04:47:51;18.98;;;14.25;;
23728;SDS011;12045;60.214;24.724;2022-08-14T04:50:46;18.63;;;13.73;;
23728;SDS011;12045;60.214;24.724;2022-08-14T04:53:23;16.45;;;13.60;;
23728;SDS011;12045;60.214;24.724;2022-08-14T04:56:02;17.00;;;14.32;;
23728;SDS011;12045;60.214;24.724;2022-08-14T04:58:36;17.60;;;14.27;;
23728;SDS011;12045;60.214;24.724;2022-08-14T05:01:05;16.85;;;13.50;;
23728;SDS011;12045;60.214;24.724;2022-08-14T05:03:45;17.65;;;13.80;;
23728;SDS011;12045;60.214;24.724;2022-08-14T05:06:17;18.50;;;13.93;;
23728;SDS011;12045;60.214;24.724;2022-08-14T05:09:05;18.88;;;14.85;;
23728;SDS011;12045;60.214;24.724;2022-08-14T05:11:40;16.95;;;13.70;;
23728;SDS011;12045;60.214;24.724;2022-08-14T05:14:10;18.27;;;13.98;;
23728;SDS011;12045;60.214;24.724;2022-08-14T05:16:58;17.23;;;13.38;;
23728;SDS011;12045;60.214;24.724;2022-08-14T05:19:28;17.13;;;13.55;;
23728;SDS011;12045;60.214;24.724;2022-08-14T05:21:59;16.52;;;12.63;;
23728;SDS011;12045;60.214;24.724;2022-08-14T05:24:45;17.10;;;13.23;;
23728;SDS011;12045;60.214;24.724;2022-08-14T05:27:17;15.82;;;12.43;;
23728;SDS011;12045;60.214;24.724;2022-08-14T05:29:52;17.45;;;12.85;;
23728;SDS011;12045;60.214;24.724;2022-08-14T05:32:23;16.30;;;13.35;;
23728;SDS011;12045;60.214;24.724;2022-08-14T05:34:55;15.40;;;12.85;;
23728;SDS011;12045;60.214;24.724;2022-08-14T05:37:25;17.98;;;13.55;;
23728;SDS011;12045;60.214;24.724;2022-08-14T05:39:56;16.95;;;14.05;;
23728;SDS011;12045;60.214;24.724;2022-08-14T05:42:24;18.58;;;14.85;;
23728;SDS011;12045;60.214;24.724;2022-08-14T05:44:58;15.98;;;14.18;;
23728;SDS011;12045;60.214;24.724;2022-08-14T05:47:25;18.70;;;14.32;;
23728;SDS011;12045;60.214;24.724;2022-08-14T05:49:59;17.35;;;14.20;;
23728;SDS011;12045;60.214;24.724;2022-08-14T05:52:27;18.05;;;14.48;;
23728;SDS011;12045;60.214;24.724;2022-08-14T05:55:06;16.83;;;13.65;;
23728;SDS011;12045;60.214;24.724;2022-08-14T05:57:45;16.15;;;13.18;;
23728;SDS011;12045;60.214;24.724;2022-08-14T06:00:15;16.25;;;13.23;;
23728;SDS011;12045;60.214;24.724;2022-08-14T06:02:59;16.77;;;13.48;;
23728;SDS011;12045;60.214;24.724;2022-08-14T06:05:32;15.95;;;13.27;;
23728;SDS011;12045;60.214;24.724;2022-08-14T06:08:04;15.88;;;13.85;;
23728;SDS011;12045;60.214;24.724;2022-08-14T06:11:01;16.25;;;13.45;;
23728;SDS011;12045;60.214;24.724;2022-08-14T06:13:33;17.05;;;12.95;;
23728;SDS011;12045;60.214;24.724;2022-08-14T06:16:12;18.10;;;13.15;;
23728;SDS011;12045;60.214;24.724;2022-08-14T06:18:47;20.75;;;13.10;;
23728;SDS011;12045;60.214;24.724;2022-08-14T06:21:22;15.30;;;12.98;;
23728;SDS011;12045;60.214;24.724;2022-08-14T06:23:51;16.05;;;13.48;;
23728;SDS011;12045;60.214;24.724;2022-08-14T06:26:19;16.88;;;13.55;;
23728;SDS011;12045;60.214;24.724;2022-08-14T06:28:48;19.52;;;14.02;;
23728;SDS011;12045;60.214;24.724;2022-08-14T06:31:18;15.93;;;13.82;;
23728;SDS011;12045;60.214;24.724;2022-08-14T06:33:48;19.50;;;13.90;;
23728;SDS011;12045;60.214;24.724;2022-08-14T06:36:36;17.73;;;14.50;;
23728;SDS011;12045;60.214;24.724;2022-08-14T06:39:05;17.17;;;14.13;;
23728;SDS011;12045;60.214;24.724;2022-08-14T06:41:37;17.75;;;13.82;;
23728;SDS011;12045;60.214;24.724;2022-08-14T06:44:25;17.15;;;14.30;;
23728;SDS011;12045;60.214;24.724;2022-08-14T06:46:59;19.10;;;15.10;;
23728;SDS011;12045;60.214;24.724;2022-08-14T06:49:31;18.98;;;14.95;;
23728;SDS011;12045;60.214;24.724;2022-08-14T06:52:12;16.85;;;14.57;;
23728;SDS011;12045;60.214;24.724;2022-08-14T06:54:42;18.63;;;16.05;;
23728;SDS011;12045;60.214;24.724;2022-08-14T06:57:10;21.08;;;15.98;;
23728;SDS011;12045;60.214;24.724;2022-08-14T06:59:39;18.50;;;15.80;;
23728;SDS011;12045;60.214;24.724;2022-08-14T07:02:07;19.40;;;15.00;;
23728;SDS011;12045;60.214;24.724;2022-08-14T07:04:54;17.45;;;14.65;;
23728;SDS011;12045;60.214;24.724;2022-08-14T07:07:48;18.80;;;15.15;;
23728;SDS011;12045;60.214;24.724;2022-08-14T07:10:16;19.15;;;15.65;;
23728;SDS011;12045;60.214;24.724;2022-08-14T07:12:44;19.80;;;14.98;;
23728;SDS011;12045;60.214;24.724;2022-08-14T07:15:29;16.25;;;13.95;;
23728;SDS011;12045;60.214;24.724;2022-08-14T07:18:08;14.05;;;12.55;;
23728;SDS011;12045;60.214;24.724;2022-08-14T07:20:36;15.90;;;11.85;;
23728;SDS011;12045;60.214;24.724;2022-08-14T07:23:06;16.27;;;12.32;;
23728;SDS011;12045;60.214;24.724;2022-08-14T07:25:46;15.38;;;12.45;;
23728;SDS011;12045;60.214;24.724;2022-08-14T07:28:18;15.43;;;12.05;;
23728;SDS011;12045;60.214;24.724;2022-08-14T07:30:53;14.65;;;11.45;;
23728;SDS011;12045;60.214;24.724;2022-08-14T07:33:38;14.57;;;11.15;;
23728;SDS011;12045;60.214;24.724;2022-08-14T07:36:14;12.95;;;10.57;;
23728;SDS011;12045;60.214;24.724;2022-08-14T07:38:59;14.10;;;10.27;;
23728;SDS011;12045;60.214;24.724;2022-08-14T07:41:37;11.48;;;9.85;;
23728;SDS011;12045;60.214;24.724;2022-08-14T07:44:08;13.00;;;10.25;;
23728;SDS011;12045;60.214;24.724;2022-08-14T07:46:57;11.63;;;9.70;;
23728;SDS011;12045;60.214;24.724;2022-08-14T07:49:24;12.45;;;10.48;;
23728;SDS011;12045;60.214;24.724;2022-08-14T07:51:53;11.60;;;10.40;;
23728;SDS011;12045;60.214;24.724;2022-08-14T07:54:24;13.05;;;10.90;;
23728;SDS011;12045;60.214;24.724;2022-08-14T07:56:59;11.82;;;10.10;;
23728;SDS011;12045;60.214;24.724;2022-08-14T07:59:38;13.35;;;9.73;;
23728;SDS011;12045;60.214;24.724;2022-08-14T08:02:13;10.50;;;9.40;;
23728;SDS011;12045;60.214;24.724;2022-08-14T08:04:48;11.32;;;9.32;;
23728;SDS011;12045;60.214;24.724;2022-08-14T08:07:25;11.07;;;9.80;;
23728;SDS011;12045;60.214;24.724;2022-08-14T08:09:56;11.85;;;8.90;;
23728;SDS011;12045;60.214;24.724;2022-08-14T08:12:28;10.43;;;9.35;;
23728;SDS011;12045;60.214;24.724;2022-08-14T08:14:58;13.52;;;9.38;;
23728;SDS011;12045;60.214;24.724;2022-08-14T08:17:36;12.27;;;9.40;;
23728;SDS011;12045;60.214;24.724;2022-08-14T08:20:25;15.00;;;9.05;;
23728;SDS011;12045;60.214;24.724;2022-08-14T08:22:55;9.55;;;8.02;;
23728;SDS011;12045;60.214;24.724;2022-08-14T08:25:36;10.80;;;8.43;;
23728;SDS011;12045;60.214;24.724;2022-08-14T08:28:08;9.77;;;8.70;;
23728;SDS011;12045;60.214;24.724;2022-08-14T08:30:52;9.85;;;8.15;;
23728;SDS011;12045;60.214;24.724;2022-08-14T08:33:25;9.50;;;8.00;;
23728;SDS011;12045;60.214;24.724;2022-08-14T08:36:06;8.95;;;8.00;;
23728;SDS011;12045;60.214;24.724;2022-08-14T08:38:38;9.00;;;7.80;;
23728;SDS011;12045;60.214;24.724;2022-08-14T08:41:37;9.13;;;7.78;;
23728;SDS011;12045;60.214;24.724;2022-08-14T08:44:16;9.13;;;7.63;;
23728;SDS011;12045;60.214;24.724;2022-08-14T08:46:59;9.63;;;8.65;;
23728;SDS011;12045;60.214;24.724;2022-08-14T08:49:39;10.80;;;8.07;;
23728;SDS011;12045;60.214;24.724;2022-08-14T08:52:26;9.07;;;8.18;;
23728;SDS011;12045;60.214;24.724;2022-08-14T08:54:58;9.15;;;7.43;;
23728;SDS011;12045;60.214;24.724;2022-08-14T08:57:34;8.90;;;7.90;;
23728;SDS011;12045;60.214;24.724;2022-08-14T09:00:14;8.82;;;7.93;;
23728;SDS011;12045;60.214;24.724;2022-08-14T09:03:05;9.98;;;8.90;;
23728;SDS011;12045;60.214;24.724;2022-08-14T09:05:36;8.55;;;7.13;;
23728;SDS011;12045;60.214;24.724;2022-08-14T09:08:16;9.82;;;8.20;;
23728;SDS011;12045;60.214;24.724;2022-08-14T09:10:58;12.50;;;8.60;;
23728;SDS011;12045;60.214;24.724;2022-08-14T09:13:46;10.55;;;9.07;;
23728;SDS011;12045;60.214;24.724;2022-08-14T09:16:19;12.18;;;9.80;;
23728;SDS011;12045;60.214;24.724;2022-08-14T09:18:52;11.73;;;10.15;;
23728;SDS011;12045;60.214;24.724;2022-08-14T09:21:21;15.05;;;10.32;;
23728;SDS011;12045;60.214;24.724;2022-08-14T09:23:53;13.98;;;9.68;;
23728;SDS011;12045;60.214;24.724;2022-08-14T09:26:42;11.95;;;9.85;;
23728;SDS011;12045;60.214;24.724;2022-08-14T09:29:16;9.40;;;8.30;;
23728;SDS011;12045;60.214;24.724;2022-08-14T09:31:52;9.05;;;7.68;;
23728;SDS011;12045;60.214;24.724;2022-08-14T09:37:47;8.18;;;6.82;;
23728;SDS011;12045;60.214;24.724;2022-08-14T09:46:20;7.28;;;5.82;;
23728;SDS011;12045;60.214;24.724;2022-08-14T09:49:01;8.63;;;5.82;;
23728;SDS011;12045;60.214;24.724;2022-08-14T09:51:32;6.40;;;5.32;;
23728;SDS011;12045;60.214;24.724;2022-08-14T09:54:23;8.90;;;5.90;;
23728;SDS011;12045;60.214;24.724;2022-08-14T09:57:04;9.02;;;7.40;;
23728;SDS011;12045;60.214;24.724;2022-08-14T09:59:42;9.18;;;7.35;;
23728;SDS011;12045;60.214;24.724;2022-08-14T10:02:20;8.30;;;7.50;;
23728;SDS011;12045;60.214;24.724;2022-08-14T10:04:59;10.85;;;8.63;;
23728;SDS011;12045;60.214;24.724;2022-08-14T10:07:44;9.85;;;8.85;;
23728;SDS011;12045;60.214;24.724;2022-08-14T10:13:19;12.18;;;9.70;;
23728;SDS011;12045;60.214;24.724;2022-08-14T10:15:57;14.35;;;11.07;;
23728;SDS011;12045;60.214;24.724;2022-08-14T10:18:26;10.65;;;9.55;;
23728;SDS011;12045;60.214;24.724;2022-08-14T10:20:55;13.38;;;10.93;;
23728;SDS011;12045;60.214;24.724;2022-08-14T10:23:27;12.73;;;9.05;;
23728;SDS011;12045;60.214;24.724;2022-08-14T10:26:06;11.57;;;10.15;;
23728;SDS011;12045;60.214;24.724;2022-08-14T10:28:49;11.57;;;10.23;;
23728;SDS011;12045;60.214;24.724;2022-08-14T10:31:37;12.00;;;9.98;;
23728;SDS011;12045;60.214;24.724;2022-08-14T10:34:12;11.88;;;9.60;;
23728;SDS011;12045;60.214;24.724;2022-08-14T10:37:05;10.20;;;8.93;;
23728;SDS011;12045;60.214;24.724;2022-08-14T10:39:40;10.88;;;9.25;;
23728;SDS011;12045;60.214;24.724;2022-08-14T10:42:36;12.57;;;8.50;;
23728;SDS011;12045;60.214;24.724;2022-08-14T10:45:16;13.65;;;9.52;;
23728;SDS011;12045;60.214;24.724;2022-08-14T10:47:51;10.15;;;8.68;;
23728;SDS011;12045;60.214;24.724;2022-08-14T10:50:39;9.63;;;8.63;;
23728;SDS011;12045;60.214;24.724;2022-08-14T10:53:12;12.38;;;8.68;;
23728;SDS011;12045;60.214;24.724;2022-08-14T10:55:41;13.52;;;8.50;;
23728;SDS011;12045;60.214;24.724;2022-08-14T10:58:11;13.18;;;8.48;;
23728;SDS011;12045;60.214;24.724;2022-08-14T11:00:41;9.52;;;8.13;;
23728;SDS011;12045;60.214;24.724;2022-08-14T11:03:23;9.68;;;7.93;;
23728;SDS011;12045;60.214;24.724;2022-08-14T11:06:10;9.38;;;8.38;;
23728;SDS011;12045;60.214;24.724;2022-08-14T11:08:45;9.02;;;7.70;;
23728;SDS011;12045;60.214;24.724;2022-08-14T11:11:16;10.35;;;7.55;;
23728;SDS011;12045;60.214;24.724;2022-08-14T11:13:45;10.15;;;7.75;;
23728;SDS011;12045;60.214;24.724;2022-08-14T11:16:13;10.15;;;7.13;;
23728;SDS011;12045;60.214;24.724;2022-08-14T11:18:43;10.32;;;7.63;;
23728;SDS011;12045;60.214;24.724;2022-08-14T11:21:17;9.32;;;7.45;;
23728;SDS011;12045;60.214;24.724;2022-08-14T11:23:49;8.77;;;7.10;;
23728;SDS011;12045;60.214;24.724;2022-08-14T11:26:22;8.23;;;6.90;;
23728;SDS011;12045;60.214;24.724;2022-08-14T11:28:55;8.88;;;6.30;;
23728;SDS011;12045;60.214;24.724;2022-08-14T11:31:25;7.57;;;6.75;;
23728;SDS011;12045;60.214;24.724;2022-08-14T11:34:04;9.98;;;6.68;;
23728;SDS011;12045;60.214;24.724;2022-08-14T11:36:52;8.15;;;6.50;;
23728;SDS011;12045;60.214;24.724;2022-08-14T11:39:40;7.50;;;6.60;;
23728;SDS011;12045;60.214;24.724;2022-08-14T11:42:19;7.78;;;6.10;;
23728;SDS011;12045;60.214;24.724;2022-08-14T11:45:09;7.80;;;6.47;;
23728;SDS011;12045;60.214;24.724;2022-08-14T11:47:44;8.77;;;6.40;;
23728;SDS011;12045;60.214;24.724;2022-08-14T11:50:32;8.82;;;6.10;;
23728;SDS011;12045;60.214;24.724;2022-08-14T11:53:04;7.40;;;6.20;;
23728;SDS011;12045;60.214;24.724;2022-08-14T11:55:37;7.20;;;6.25;;
23728;SDS011;12045;60.214;24.724;2022-08-14T11:58:07;8.55;;;6.10;;
23728;SDS011;12045;60.214;24.724;2022-08-14T12:00:50;6.63;;;5.90;;
23728;SDS011;12045;60.214;24.724;2022-08-14T12:03:20;7.25;;;5.70;;
23728;SDS011;12045;60.214;24.724;2022-08-14T12:06:15;5.70;;;5.10;;
23728;SDS011;12045;60.214;24.724;2022-08-14T12:09:01;5.88;;;4.90;;
23728;SDS011;12045;60.214;24.724;2022-08-14T12:11:38;6.70;;;4.97;;
23728;SDS011;12045;60.214;24.724;2022-08-14T12:14:10;6.30;;;4.40;;
23728;SDS011;12045;60.214;24.724;2022-08-14T12:16:57;6.30;;;4.80;;
23728;SDS011;12045;60.214;24.724;2022-08-14T12:19:27;6.53;;;5.05;;
23728;SDS011;12045;60.214;24.724;2022-08-14T12:22:01;6.35;;;5.03;;
23728;SDS011;12045;60.214;24.724;2022-08-14T12:24:32;5.43;;;4.35;;
23728;SDS011;12045;60.214;24.724;2022-08-14T12:27:05;5.72;;;4.68;;
23728;SDS011;12045;60.214;24.724;2022-08-14T12:29:34;6.53;;;4.55;;
23728;SDS011;12045;60.214;24.724;2022-08-14T12:32:02;6.78;;;4.72;;
23728;SDS011;12045;60.214;24.724;2022-08-14T12:34:38;7.70;;;5.25;;
23728;SDS011;12045;60.214;24.724;2022-08-14T12:37:10;5.45;;;4.95;;
23728;SDS011;12045;60.214;24.724;2022-08-14T12:39:43;6.57;;;4.57;;
23728;SDS011;12045;60.214;24.724;2022-08-14T12:42:12;5.63;;;4.47;;
23728;SDS011;12045;60.214;24.724;2022-08-14T12:45:00;7.30;;;4.65;;
23728;SDS011;12045;60.214;24.724;2022-08-14T12:47:29;5.65;;;3.97;;
23728;SDS011;12045;60.214;24.724;2022-08-14T12:49:58;4.50;;;3.95;;
23728;SDS011;12045;60.214;24.724;2022-08-14T12:52:27;5.63;;;4.00;;
23728;SDS011;12045;60.214;24.724;2022-08-14T12:55:20;6.93;;;4.32;;
23728;SDS011;12045;60.214;24.724;2022-08-14T12:57:58;6.30;;;3.90;;
23728;SDS011;12045;60.214;24.724;2022-08-14T13:00:33;5.15;;;4.32;;
23728;SDS011;12045;60.214;24.724;2022-08-14T13:03:35;9.60;;;5.20;;
23728;SDS011;12045;60.214;24.724;2022-08-14T13:06:06;7.90;;;5.03;;
23728;SDS011;12045;60.214;24.724;2022-08-14T13:08:36;6.43;;;4.43;;
23728;SDS011;12045;60.214;24.724;2022-08-14T13:11:12;5.35;;;4.70;;
23728;SDS011;12045;60.214;24.724;2022-08-14T13:13:41;5.00;;;4.20;;
23728;SDS011;12045;60.214;24.724;2022-08-14T13:16:14;4.90;;;4.50;;
23728;SDS011;12045;60.214;24.724;2022-08-14T13:19:03;7.20;;;4.32;;
23728;SDS011;12045;60.214;24.724;2022-08-14T13:21:38;4.40;;;3.60;;
23728;SDS011;12045;60.214;24.724;2022-08-14T13:24:26;6.43;;;3.95;;
23728;SDS011;12045;60.214;24.724;2022-08-14T13:26:59;4.65;;;3.60;;
23728;SDS011;12045;60.214;24.724;2022-08-14T13:29:31;5.28;;;3.88;;
23728;SDS011;12045;60.214;24.724;2022-08-14T13:32:06;5.28;;;3.30;;
23728;SDS011;12045;60.214;24.724;2022-08-14T13:34:36;3.45;;;3.17;;
23728;SDS011;12045;60.214;24.724;2022-08-14T13:37:06;3.50;;;2.80;;
23728;SDS011;12045;60.214;24.724;2022-08-14T13:39:34;3.85;;;2.75;;
23728;SDS011;12045;60.214;24.724;2022-08-14T13:42:04;3.88;;;2.65;;
23728;SDS011;12045;60.214;24.724;2022-08-14T13:44:43;3.35;;;2.58;;
23728;SDS011;12045;60.214;24.724;2022-08-14T13:47:11;5.85;;;2.80;;
23728;SDS011;12045;60.214;24.724;2022-08-14T13:49:41;3.55;;;2.90;;
23728;SDS011;12045;60.214;24.724;2022-08-14T13:52:24;2.88;;;2.35;;
23728;SDS011;12045;60.214;24.724;2022-08-14T13:55:12;3.97;;;2.33;;
23728;SDS011;12045;60.214;24.724;2022-08-14T13:57:45;3.30;;;2.63;;
23728;SDS011;12045;60.214;24.724;2022-08-14T14:00:34;2.72;;;2.15;;
23728;SDS011;12045;60.214;24.724;2022-08-14T14:03:21;4.00;;;2.30;;
23728;SDS011;12045;60.214;24.724;2022-08-14T14:05:51;2.70;;;2.42;;
23728;SDS011;12045;60.214;24.724;2022-08-14T14:08:22;3.25;;;2.65;;
23728;SDS011;12045;60.214;24.724;2022-08-14T14:11:10;3.03;;;2.13;;
23728;SDS011;12045;60.214;24.724;2022-08-14T14:13:44;2.42;;;2.03;;
23728;SDS011;12045;60.214;24.724;2022-08-14T14:16:14;2.83;;;1.80;;
23728;SDS011;12045;60.214;24.724;2022-08-14T14:18:53;2.38;;;2.00;;
23728;SDS011;12045;60.214;24.724;2022-08-14T14:21:23;4.68;;;2.08;;
23728;SDS011;12045;60.214;24.724;2022-08-14T14:23:58;4.25;;;1.90;;
23728;SDS011;12045;60.214;24.724;2022-08-14T14:26:28;2.53;;;2.00;;
23728;SDS011;12045;60.214;24.724;2022-08-14T14:29:01;2.92;;;1.98;;
23728;SDS011;12045;60.214;24.724;2022-08-14T14:31:34;3.17;;;1.70;;
23728;SDS011;12045;60.214;24.724;2022-08-14T14:34:06;2.95;;;2.15;;
23728;SDS011;12045;60.214;24.724;2022-08-14T14:36:56;3.30;;;1.77;;
23728;SDS011;12045;60.214;24.724;2022-08-14T14:39:29;3.45;;;1.70;;
23728;SDS011;12045;60.214;24.724;2022-08-14T14:42:04;3.35;;;1.58;;
23728;SDS011;12045;60.214;24.724;2022-08-14T14:44:39;2.45;;;1.70;;
23728;SDS011;12045;60.214;24.724;2022-08-14T14:47:08;3.35;;;1.73;;
23728;SDS011;12045;60.214;24.724;2022-08-14T14:49:37;3.22;;;1.70;;
23728;SDS011;12045;60.214;24.724;2022-08-14T14:52:20;1.85;;;1.60;;
23728;SDS011;12045;60.214;24.724;2022-08-14T14:54:57;1.95;;;1.70;;
23728;SDS011;12045;60.214;24.724;2022-08-14T14:57:28;2.03;;;1.50;;
23728;SDS011;12045;60.214;24.724;2022-08-14T15:00:05;3.17;;;1.73;;
23728;SDS011;12045;60.214;24.724;2022-08-14T15:02:40;2.67;;;1.63;;
23728;SDS011;12045;60.214;24.724;2022-08-14T15:05:13;2.00;;;1.67;;
23728;SDS011;12045;60.214;24.724;2022-08-14T15:07:45;3.58;;;2.05;;
23728;SDS011;12045;60.214;24.724;2022-08-14T15:10:16;2.67;;;2.13;;
23728;SDS011;12045;60.214;24.724;2022-08-14T15:12:58;3.55;;;1.95;;
23728;SDS011;12045;60.214;24.724;2022-08-14T15:15:31;3.85;;;1.80;;
23728;SDS011;12045;60.214;24.724;2022-08-14T15:18:06;3.10;;;1.80;;
23728;SDS011;12045;60.214;24.724;2022-08-14T15:20:54;3.17;;;1.95;;
23728;SDS011;12045;60.214;24.724;2022-08-14T15:23:25;4.22;;;2.20;;
23728;SDS011;12045;60.214;24.724;2022-08-14T15:26:10;3.83;;;2.00;;
23728;SDS011;12045;60.214;24.724;2022-08-14T15:29:00;3.25;;;1.95;;
23728;SDS011;12045;60.214;24.724;2022-08-14T15:31:32;4.60;;;2.00;;